sensor_id;sensor_type;location;lat;lon;timestamp;P1;durP1;ratioP1;P2;durP2;ratioP2
8254;SDS011;4167;48.162;11.542;2023-10-08T00:01:36;440.65;;;394.33;;
8254;SDS011;4167;48.162;11.542;2023-10-08T00:04:08;442.35;;;394.17;;
8254;SDS011;4167;48.162;11.542;2023-10-08T00:06:36;447.10;;;402.67;;
8254;SDS011;4167;48.162;11.542;2023-10-08T00:09:04;451.05;;;400.90;;
8254;SDS011;4167;48.162;11.542;2023-10-08T00:11:34;448.85;;;399.80;;
8254;SDS011;4167;48.162;11.542;2023-10-08T00:14:01;451.85;;;404.88;;
8254;SDS011;4167;48.162;11.542;2023-10-08T00:16:30;447.60;;;399.58;;
8254;SDS011;4167;48.162;11.542;2023-10-08T00:18:58;449.88;;;401.90;;
8254;SDS011;4167;48.162;11.542;2023-10-08T00:21:34;449.38;;;403.02;;
8254;SDS011;4167;48.162;11.542;2023-10-08T00:24:02;447.55;;;399.45;;
8254;SDS011;4167;48.162;11.542;2023-10-08T00:26:32;439.77;;;391.80;;
8254;SDS011;4167;48.162;11.542;2023-10-08T00:29:01;460.95;;;410.35;;
8254;SDS011;4167;48.162;11.542;2023-10-08T00:31:31;441.27;;;393.52;;
8254;SDS011;4167;48.162;11.542;2023-10-08T00:34:03;445.48;;;398.55;;
8254;SDS011;4167;48.162;11.542;2023-10-08T00:36:31;438.65;;;392.50;;
8254;SDS011;4167;48.162;11.542;2023-10-08T00:39:00;440.38;;;392.90;;
8254;SDS011;4167;48.162;11.542;2023-10-08T00:41:33;438.60;;;390.48;;
8254;SDS011;4167;48.162;11.542;2023-10-08T00:43:59;435.27;;;389.13;;
8254;SDS011;4167;48.162;11.542;2023-10-08T00:46:26;449.90;;;400.98;;
8254;SDS011;4167;48.162;11.542;2023-10-08T00:48:56;454.85;;;408.05;;
8254;SDS011;4167;48.162;11.542;2023-10-08T00:51:24;450.02;;;400.60;;
8254;SDS011;4167;48.162;11.542;2023-10-08T00:53:57;435.23;;;390.27;;
8254;SDS011;4167;48.162;11.542;2023-10-08T00:56:31;436.23;;;389.10;;
8254;SDS011;4167;48.162;11.542;2023-10-08T00:59:15;473.83;;;409.45;;
8254;SDS011;4167;48.162;11.542;2023-10-08T01:01:45;454.90;;;407.13;;
8254;SDS011;4167;48.162;11.542;2023-10-08T01:04:16;465.80;;;396.20;;
8254;SDS011;4167;48.162;11.542;2023-10-08T01:06:44;448.92;;;401.52;;
8254;SDS011;4167;48.162;11.542;2023-10-08T01:09:13;461.25;;;401.08;;
8254;SDS011;4167;48.162;11.542;2023-10-08T01:11:43;434.92;;;387.83;;
8254;SDS011;4167;48.162;11.542;2023-10-08T01:14:14;452.58;;;396.20;;
8254;SDS011;4167;48.162;11.542;2023-10-08T01:16:43;446.90;;;397.45;;
8254;SDS011;4167;48.162;11.542;2023-10-08T01:19:11;481.85;;;405.67;;
8254;SDS011;4167;48.162;11.542;2023-10-08T01:21:40;447.45;;;399.05;;
8254;SDS011;4167;48.162;11.542;2023-10-08T01:24:08;448.63;;;400.67;;
8254;SDS011;4167;48.162;11.542;2023-10-08T01:26:41;444.63;;;395.63;;
8254;SDS011;4167;48.162;11.542;2023-10-08T01:29:10;461.55;;;400.73;;
8254;SDS011;4167;48.162;11.542;2023-10-08T01:31:44;452.00;;;403.25;;
8254;SDS011;4167;48.162;11.542;2023-10-08T01:34:10;504.98;;;400.08;;
8254;SDS011;4167;48.162;11.542;2023-10-08T01:36:40;454.25;;;404.30;;
8254;SDS011;4167;48.162;11.542;2023-10-08T01:39:10;448.95;;;396.98;;
8254;SDS011;4167;48.162;11.542;2023-10-08T01:41:41;440.50;;;392.65;;
8254;SDS011;4167;48.162;11.542;2023-10-08T01:44:08;443.55;;;394.70;;
8254;SDS011;4167;48.162;11.542;2023-10-08T01:46:35;442.75;;;395.20;;
8254;SDS011;4167;48.162;11.542;2023-10-08T01:49:05;450.02;;;398.00;;
8254;SDS011;4167;48.162;11.542;2023-10-08T01:51:38;565.75;;;408.30;;
8254;SDS011;4167;48.162;11.542;2023-10-08T01:56:42;450.58;;;402.38;;
8254;SDS011;4167;48.162;11.542;2023-10-08T01:59:09;442.60;;;394.45;;
8254;SDS011;4167;48.162;11.542;2023-10-08T02:01:36;433.98;;;388.48;;
8254;SDS011;4167;48.162;11.542;2023-10-08T02:04:04;459.02;;;409.75;;
8254;SDS011;4167;48.162;11.542;2023-10-08T02:06:33;448.95;;;399.83;;
8254;SDS011;4167;48.162;11.542;2023-10-08T02:09:00;437.65;;;390.75;;
8254;SDS011;4167;48.162;11.542;2023-10-08T02:11:41;457.98;;;410.02;;
8254;SDS011;4167;48.162;11.542;2023-10-08T02:14:08;452.05;;;403.42;;
8254;SDS011;4167;48.162;11.542;2023-10-08T02:16:35;448.92;;;400.38;;
8254;SDS011;4167;48.162;11.542;2023-10-08T02:21:28;459.13;;;411.48;;
8254;SDS011;4167;48.162;11.542;2023-10-08T02:23:56;459.48;;;411.55;;
8254;SDS011;4167;48.162;11.542;2023-10-08T02:26:22;465.92;;;401.30;;
8254;SDS011;4167;48.162;11.542;2023-10-08T02:28:50;454.58;;;405.15;;
8254;SDS011;4167;48.162;11.542;2023-10-08T02:31:17;530.47;;;408.30;;
8254;SDS011;4167;48.162;11.542;2023-10-08T02:33:43;449.52;;;401.77;;
8254;SDS011;4167;48.162;11.542;2023-10-08T02:36:10;450.17;;;394.88;;
8254;SDS011;4167;48.162;11.542;2023-10-08T02:38:39;447.40;;;400.33;;
8254;SDS011;4167;48.162;11.542;2023-10-08T02:41:05;464.50;;;402.42;;
8254;SDS011;4167;48.162;11.542;2023-10-08T02:43:32;448.83;;;401.35;;
8254;SDS011;4167;48.162;11.542;2023-10-08T02:46:02;445.70;;;398.80;;
8254;SDS011;4167;48.162;11.542;2023-10-08T02:48:32;438.23;;;390.35;;
8254;SDS011;4167;48.162;11.542;2023-10-08T02:50:59;460.48;;;409.80;;
8254;SDS011;4167;48.162;11.542;2023-10-08T02:53:38;439.27;;;392.92;;
8254;SDS011;4167;48.162;11.542;2023-10-08T02:56:06;445.80;;;397.60;;
8254;SDS011;4167;48.162;11.542;2023-10-08T02:58:37;439.90;;;392.75;;
8254;SDS011;4167;48.162;11.542;2023-10-08T03:01:06;471.17;;;392.88;;
8254;SDS011;4167;48.162;11.542;2023-10-08T03:03:37;433.88;;;386.15;;
8254;SDS011;4167;48.162;11.542;2023-10-08T03:06:04;492.60;;;398.98;;
8254;SDS011;4167;48.162;11.542;2023-10-08T03:08:36;457.92;;;408.48;;
8254;SDS011;4167;48.162;11.542;2023-10-08T03:11:05;466.95;;;415.33;;
8254;SDS011;4167;48.162;11.542;2023-10-08T03:13:41;442.85;;;395.08;;
8254;SDS011;4167;48.162;11.542;2023-10-08T03:16:12;538.90;;;419.80;;
8254;SDS011;4167;48.162;11.542;2023-10-08T03:18:40;446.15;;;397.40;;
8254;SDS011;4167;48.162;11.542;2023-10-08T03:21:10;453.88;;;405.25;;
8254;SDS011;4167;48.162;11.542;2023-10-08T03:23:45;440.17;;;392.48;;
8254;SDS011;4167;48.162;11.542;2023-10-08T03:26:13;439.67;;;393.60;;
8254;SDS011;4167;48.162;11.542;2023-10-08T03:28:58;431.60;;;388.48;;
8254;SDS011;4167;48.162;11.542;2023-10-08T03:31:27;431.70;;;387.83;;
8254;SDS011;4167;48.162;11.542;2023-10-08T03:34:09;432.23;;;388.15;;
8254;SDS011;4167;48.162;11.542;2023-10-08T03:36:37;441.38;;;397.10;;
8254;SDS011;4167;48.162;11.542;2023-10-08T03:39:09;446.73;;;401.67;;
8254;SDS011;4167;48.162;11.542;2023-10-08T03:41:38;445.13;;;400.50;;
8254;SDS011;4167;48.162;11.542;2023-10-08T03:44:05;441.42;;;396.60;;
8254;SDS011;4167;48.162;11.542;2023-10-08T03:46:39;438.60;;;394.38;;
8254;SDS011;4167;48.162;11.542;2023-10-08T03:49:08;449.45;;;403.98;;
8254;SDS011;4167;48.162;11.542;2023-10-08T03:51:50;449.08;;;404.58;;
8254;SDS011;4167;48.162;11.542;2023-10-08T03:54:17;439.00;;;394.48;;
8254;SDS011;4167;48.162;11.542;2023-10-08T03:56:45;443.05;;;399.23;;
8254;SDS011;4167;48.162;11.542;2023-10-08T03:59:14;447.88;;;403.77;;
8254;SDS011;4167;48.162;11.542;2023-10-08T04:01:47;427.73;;;384.42;;
8254;SDS011;4167;48.162;11.542;2023-10-08T04:04:19;438.95;;;393.95;;
8254;SDS011;4167;48.162;11.542;2023-10-08T04:06:47;448.05;;;403.10;;
8254;SDS011;4167;48.162;11.542;2023-10-08T04:09:14;434.73;;;391.42;;
8254;SDS011;4167;48.162;11.542;2023-10-08T04:11:49;446.98;;;402.90;;
8254;SDS011;4167;48.162;11.542;2023-10-08T04:14:21;428.55;;;384.05;;
8254;SDS011;4167;48.162;11.542;2023-10-08T04:16:49;435.42;;;391.63;;
8254;SDS011;4167;48.162;11.542;2023-10-08T04:19:17;430.33;;;387.02;;
8254;SDS011;4167;48.162;11.542;2023-10-08T04:21:45;430.50;;;386.67;;
8254;SDS011;4167;48.162;11.542;2023-10-08T04:24:19;427.45;;;383.63;;
8254;SDS011;4167;48.162;11.542;2023-10-08T04:26:52;433.30;;;389.48;;
8254;SDS011;4167;48.162;11.542;2023-10-08T04:29:21;432.60;;;387.77;;
8254;SDS011;4167;48.162;11.542;2023-10-08T04:31:49;433.20;;;389.50;;
8254;SDS011;4167;48.162;11.542;2023-10-08T04:34:27;437.23;;;392.80;;
8254;SDS011;4167;48.162;11.542;2023-10-08T04:36:53;433.10;;;389.05;;
8254;SDS011;4167;48.162;11.542;2023-10-08T04:39:22;434.77;;;390.40;;
8254;SDS011;4167;48.162;11.542;2023-10-08T04:41:56;436.40;;;392.27;;
8254;SDS011;4167;48.162;11.542;2023-10-08T04:44:24;430.88;;;387.02;;
8254;SDS011;4167;48.162;11.542;2023-10-08T04:46:52;440.67;;;396.73;;
8254;SDS011;4167;48.162;11.542;2023-10-08T04:49:19;433.05;;;387.52;;
8254;SDS011;4167;48.162;11.542;2023-10-08T04:51:55;435.45;;;391.23;;
8254;SDS011;4167;48.162;11.542;2023-10-08T04:54:25;436.52;;;392.75;;
8254;SDS011;4167;48.162;11.542;2023-10-08T04:56:55;448.52;;;403.67;;
8254;SDS011;4167;48.162;11.542;2023-10-08T04:59:23;437.00;;;391.70;;
8254;SDS011;4167;48.162;11.542;2023-10-08T05:01:58;425.95;;;382.35;;
8254;SDS011;4167;48.162;11.542;2023-10-08T05:04:43;436.58;;;392.50;;
8254;SDS011;4167;48.162;11.542;2023-10-08T05:07:21;438.05;;;393.83;;
8254;SDS011;4167;48.162;11.542;2023-10-08T05:10:05;428.13;;;384.40;;
8254;SDS011;4167;48.162;11.542;2023-10-08T05:12:57;427.90;;;385.20;;
8254;SDS011;4167;48.162;11.542;2023-10-08T05:15:40;429.30;;;384.85;;
8254;SDS011;4167;48.162;11.542;2023-10-08T05:18:16;427.88;;;384.92;;
8254;SDS011;4167;48.162;11.542;2023-10-08T05:20:48;448.13;;;404.27;;
8254;SDS011;4167;48.162;11.542;2023-10-08T05:23:40;431.40;;;388.63;;
8254;SDS011;4167;48.162;11.542;2023-10-08T05:26:25;439.98;;;395.95;;
8254;SDS011;4167;48.162;11.542;2023-10-08T05:29:06;428.88;;;384.77;;
8254;SDS011;4167;48.162;11.542;2023-10-08T05:31:47;432.65;;;388.48;;
8254;SDS011;4167;48.162;11.542;2023-10-08T05:34:25;438.80;;;394.98;;
8254;SDS011;4167;48.162;11.542;2023-10-08T05:36:58;434.90;;;391.63;;
8254;SDS011;4167;48.162;11.542;2023-10-08T05:39:56;433.10;;;389.58;;
8254;SDS011;4167;48.162;11.542;2023-10-08T05:42:35;448.25;;;403.88;;
8254;SDS011;4167;48.162;11.542;2023-10-08T05:45:11;445.48;;;400.40;;
8254;SDS011;4167;48.162;11.542;2023-10-08T05:47:39;431.17;;;387.33;;
8254;SDS011;4167;48.162;11.542;2023-10-08T05:50:17;442.30;;;395.88;;
8254;SDS011;4167;48.162;11.542;2023-10-08T05:53:04;437.75;;;394.30;;
8254;SDS011;4167;48.162;11.542;2023-10-08T05:55:44;441.30;;;396.60;;
8254;SDS011;4167;48.162;11.542;2023-10-08T05:58:12;446.45;;;400.85;;
8254;SDS011;4167;48.162;11.542;2023-10-08T06:00:49;431.63;;;388.98;;
8254;SDS011;4167;48.162;11.542;2023-10-08T06:03:33;429.58;;;385.75;;
8254;SDS011;4167;48.162;11.542;2023-10-08T06:06:12;428.70;;;383.77;;
8254;SDS011;4167;48.162;11.542;2023-10-08T06:11:40;432.73;;;390.00;;
8254;SDS011;4167;48.162;11.542;2023-10-08T06:14:10;431.13;;;387.83;;
8254;SDS011;4167;48.162;11.542;2023-10-08T06:16:42;428.58;;;384.58;;
8254;SDS011;4167;48.162;11.542;2023-10-08T06:21:37;440.17;;;396.77;;
8254;SDS011;4167;48.162;11.542;2023-10-08T06:24:05;427.85;;;384.58;;
8254;SDS011;4167;48.162;11.542;2023-10-08T06:26:35;435.30;;;390.67;;
8254;SDS011;4167;48.162;11.542;2023-10-08T06:29:07;427.17;;;384.48;;
8254;SDS011;4167;48.162;11.542;2023-10-08T06:31:43;434.80;;;390.95;;
8254;SDS011;4167;48.162;11.542;2023-10-08T06:34:15;430.80;;;385.27;;
8254;SDS011;4167;48.162;11.542;2023-10-08T06:36:47;435.23;;;391.25;;
8254;SDS011;4167;48.162;11.542;2023-10-08T06:39:15;435.48;;;389.75;;
8254;SDS011;4167;48.162;11.542;2023-10-08T06:41:44;437.10;;;391.63;;
8254;SDS011;4167;48.162;11.542;2023-10-08T06:44:11;453.35;;;408.48;;
8254;SDS011;4167;48.162;11.542;2023-10-08T06:46:40;466.23;;;419.23;;
8254;SDS011;4167;48.162;11.542;2023-10-08T06:49:07;468.35;;;420.77;;
8254;SDS011;4167;48.162;11.542;2023-10-08T06:51:37;460.90;;;413.80;;
8254;SDS011;4167;48.162;11.542;2023-10-08T06:54:05;455.52;;;408.10;;
8254;SDS011;4167;48.162;11.542;2023-10-08T06:56:35;484.80;;;436.30;;
8254;SDS011;4167;48.162;11.542;2023-10-08T06:59:02;475.45;;;427.58;;
8254;SDS011;4167;48.162;11.542;2023-10-08T07:01:30;469.95;;;421.75;;
8254;SDS011;4167;48.162;11.542;2023-10-08T07:04:04;475.85;;;426.67;;
8254;SDS011;4167;48.162;11.542;2023-10-08T07:06:31;494.98;;;445.05;;
8254;SDS011;4167;48.162;11.542;2023-10-08T07:08:59;498.27;;;447.83;;
8254;SDS011;4167;48.162;11.542;2023-10-08T07:11:31;518.90;;;467.67;;
8254;SDS011;4167;48.162;11.542;2023-10-08T07:14:00;517.40;;;465.58;;
8254;SDS011;4167;48.162;11.542;2023-10-08T07:16:26;498.98;;;447.58;;
8254;SDS011;4167;48.162;11.542;2023-10-08T07:18:53;498.25;;;448.23;;
8254;SDS011;4167;48.162;11.542;2023-10-08T07:21:26;482.58;;;432.17;;
8254;SDS011;4167;48.162;11.542;2023-10-08T07:24:03;472.38;;;422.65;;
8254;SDS011;4167;48.162;11.542;2023-10-08T07:26:36;481.13;;;431.38;;
8254;SDS011;4167;48.162;11.542;2023-10-08T07:29:03;488.30;;;438.10;;
8254;SDS011;4167;48.162;11.542;2023-10-08T07:31:33;493.92;;;443.38;;
8254;SDS011;4167;48.162;11.542;2023-10-08T07:34:01;478.77;;;428.95;;
8254;SDS011;4167;48.162;11.542;2023-10-08T07:36:41;480.88;;;430.98;;
8254;SDS011;4167;48.162;11.542;2023-10-08T07:39:08;483.50;;;433.25;;
8254;SDS011;4167;48.162;11.542;2023-10-08T07:41:52;480.30;;;429.48;;
8254;SDS011;4167;48.162;11.542;2023-10-08T07:44:20;463.92;;;413.85;;
8254;SDS011;4167;48.162;11.542;2023-10-08T07:46:47;477.75;;;428.33;;
8254;SDS011;4167;48.162;11.542;2023-10-08T07:49:14;478.58;;;427.67;;
8254;SDS011;4167;48.162;11.542;2023-10-08T07:51:42;478.95;;;427.50;;
8254;SDS011;4167;48.162;11.542;2023-10-08T07:54:15;481.63;;;430.08;;
8254;SDS011;4167;48.162;11.542;2023-10-08T07:56:44;460.65;;;410.45;;
8254;SDS011;4167;48.162;11.542;2023-10-08T07:59:13;469.33;;;420.48;;
8254;SDS011;4167;48.162;11.542;2023-10-08T08:01:41;474.77;;;424.35;;
8254;SDS011;4167;48.162;11.542;2023-10-08T08:04:08;463.52;;;413.90;;
8254;SDS011;4167;48.162;11.542;2023-10-08T08:06:36;477.95;;;427.60;;
8254;SDS011;4167;48.162;11.542;2023-10-08T08:09:03;450.80;;;402.63;;
8254;SDS011;4167;48.162;11.542;2023-10-08T08:11:42;461.15;;;412.50;;
8254;SDS011;4167;48.162;11.542;2023-10-08T08:14:11;462.98;;;414.50;;
8254;SDS011;4167;48.162;11.542;2023-10-08T08:16:41;458.17;;;409.60;;
8254;SDS011;4167;48.162;11.542;2023-10-08T08:19:11;457.17;;;408.65;;
8254;SDS011;4167;48.162;11.542;2023-10-08T08:21:40;466.70;;;418.30;;
8254;SDS011;4167;48.162;11.542;2023-10-08T08:24:10;458.45;;;408.42;;
8254;SDS011;4167;48.162;11.542;2023-10-08T08:26:37;463.70;;;413.95;;
8254;SDS011;4167;48.162;11.542;2023-10-08T08:29:09;460.33;;;411.55;;
8254;SDS011;4167;48.162;11.542;2023-10-08T08:31:41;457.30;;;407.58;;
8254;SDS011;4167;48.162;11.542;2023-10-08T08:34:11;457.58;;;409.92;;
8254;SDS011;4167;48.162;11.542;2023-10-08T08:36:44;476.10;;;423.63;;
8254;SDS011;4167;48.162;11.542;2023-10-08T08:39:14;449.35;;;400.48;;
8254;SDS011;4167;48.162;11.542;2023-10-08T08:41:52;463.83;;;415.05;;
8254;SDS011;4167;48.162;11.542;2023-10-08T08:44:23;464.80;;;416.80;;
8254;SDS011;4167;48.162;11.542;2023-10-08T08:46:56;452.00;;;402.88;;
8254;SDS011;4167;48.162;11.542;2023-10-08T08:49:24;457.35;;;408.77;;
8254;SDS011;4167;48.162;11.542;2023-10-08T08:51:53;475.63;;;426.15;;
8254;SDS011;4167;48.162;11.542;2023-10-08T08:54:20;472.17;;;422.17;;
8254;SDS011;4167;48.162;11.542;2023-10-08T08:56:49;457.67;;;408.77;;
8254;SDS011;4167;48.162;11.542;2023-10-08T08:59:17;455.65;;;408.10;;
8254;SDS011;4167;48.162;11.542;2023-10-08T09:01:45;450.70;;;402.25;;
8254;SDS011;4167;48.162;11.542;2023-10-08T09:04:14;466.77;;;418.85;;
8254;SDS011;4167;48.162;11.542;2023-10-08T09:06:41;457.23;;;408.58;;
8254;SDS011;4167;48.162;11.542;2023-10-08T09:09:10;459.98;;;409.45;;
8254;SDS011;4167;48.162;11.542;2023-10-08T09:11:47;456.17;;;407.38;;
8254;SDS011;4167;48.162;11.542;2023-10-08T09:14:16;456.63;;;408.77;;
8254;SDS011;4167;48.162;11.542;2023-10-08T09:16:43;468.45;;;417.70;;
8254;SDS011;4167;48.162;11.542;2023-10-08T09:19:11;457.65;;;409.10;;
8254;SDS011;4167;48.162;11.542;2023-10-08T09:21:43;463.52;;;413.25;;
8254;SDS011;4167;48.162;11.542;2023-10-08T09:24:10;460.33;;;410.90;;
8254;SDS011;4167;48.162;11.542;2023-10-08T09:26:37;464.75;;;415.38;;
8254;SDS011;4167;48.162;11.542;2023-10-08T09:29:05;453.27;;;404.90;;
8254;SDS011;4167;48.162;11.542;2023-10-08T09:31:33;473.50;;;410.52;;
8254;SDS011;4167;48.162;11.542;2023-10-08T09:34:00;466.55;;;416.67;;
8254;SDS011;4167;48.162;11.542;2023-10-08T09:36:29;462.55;;;413.33;;
8254;SDS011;4167;48.162;11.542;2023-10-08T09:38:58;463.30;;;413.60;;
8254;SDS011;4167;48.162;11.542;2023-10-08T09:41:26;466.05;;;416.67;;
8254;SDS011;4167;48.162;11.542;2023-10-08T09:43:54;466.05;;;416.83;;
8254;SDS011;4167;48.162;11.542;2023-10-08T09:46:22;446.00;;;397.45;;
8254;SDS011;4167;48.162;11.542;2023-10-08T09:48:52;449.13;;;400.52;;
8254;SDS011;4167;48.162;11.542;2023-10-08T09:51:24;453.50;;;405.27;;
8254;SDS011;4167;48.162;11.542;2023-10-08T09:53:59;473.67;;;423.42;;
8254;SDS011;4167;48.162;11.542;2023-10-08T09:56:31;450.27;;;401.88;;
8254;SDS011;4167;48.162;11.542;2023-10-08T09:58:59;464.23;;;416.25;;
8254;SDS011;4167;48.162;11.542;2023-10-08T10:01:26;456.20;;;407.80;;
8254;SDS011;4167;48.162;11.542;2023-10-08T10:03:53;455.95;;;407.30;;
8254;SDS011;4167;48.162;11.542;2023-10-08T10:06:24;464.27;;;415.63;;
8254;SDS011;4167;48.162;11.542;2023-10-08T10:08:55;447.10;;;398.98;;
8254;SDS011;4167;48.162;11.542;2023-10-08T10:11:25;457.23;;;408.10;;
8254;SDS011;4167;48.162;11.542;2023-10-08T10:13:59;485.95;;;434.10;;
8254;SDS011;4167;48.162;11.542;2023-10-08T10:16:26;478.45;;;428.65;;
8254;SDS011;4167;48.162;11.542;2023-10-08T10:18:54;473.13;;;423.55;;
8254;SDS011;4167;48.162;11.542;2023-10-08T10:21:27;483.83;;;431.90;;
8254;SDS011;4167;48.162;11.542;2023-10-08T10:23:57;456.13;;;405.98;;
8254;SDS011;4167;48.162;11.542;2023-10-08T10:26:25;475.08;;;423.75;;
8254;SDS011;4167;48.162;11.542;2023-10-08T10:31:46;484.00;;;432.58;;
8254;SDS011;4167;48.162;11.542;2023-10-08T10:34:15;481.38;;;431.83;;
8254;SDS011;4167;48.162;11.542;2023-10-08T10:36:43;478.45;;;426.83;;
8254;SDS011;4167;48.162;11.542;2023-10-08T10:39:15;476.27;;;425.27;;
8254;SDS011;4167;48.162;11.542;2023-10-08T10:41:43;471.35;;;421.80;;
8254;SDS011;4167;48.162;11.542;2023-10-08T10:44:10;481.88;;;431.45;;
8254;SDS011;4167;48.162;11.542;2023-10-08T10:46:38;468.02;;;418.75;;
8254;SDS011;4167;48.162;11.542;2023-10-08T10:49:07;454.42;;;404.35;;
8254;SDS011;4167;48.162;11.542;2023-10-08T10:51:44;464.55;;;415.55;;
8254;SDS011;4167;48.162;11.542;2023-10-08T10:54:12;456.80;;;408.08;;
8254;SDS011;4167;48.162;11.542;2023-10-08T10:56:46;454.98;;;406.23;;
8254;SDS011;4167;48.162;11.542;2023-10-08T10:59:14;469.45;;;418.20;;
8254;SDS011;4167;48.162;11.542;2023-10-08T11:01:52;460.02;;;410.63;;
8254;SDS011;4167;48.162;11.542;2023-10-08T11:04:31;450.70;;;403.20;;
8254;SDS011;4167;48.162;11.542;2023-10-08T11:06:59;462.65;;;412.50;;
8254;SDS011;4167;48.162;11.542;2023-10-08T11:12:06;480.50;;;423.10;;
8254;SDS011;4167;48.162;11.542;2023-10-08T11:14:36;455.73;;;406.70;;
8254;SDS011;4167;48.162;11.542;2023-10-08T11:17:09;470.20;;;419.88;;
8254;SDS011;4167;48.162;11.542;2023-10-08T11:19:37;461.02;;;411.50;;
8254;SDS011;4167;48.162;11.542;2023-10-08T11:22:03;468.00;;;410.02;;
8254;SDS011;4167;48.162;11.542;2023-10-08T11:24:31;467.00;;;406.27;;
8254;SDS011;4167;48.162;11.542;2023-10-08T11:26:59;483.15;;;418.17;;
8254;SDS011;4167;48.162;11.542;2023-10-08T11:29:43;450.15;;;402.27;;
8254;SDS011;4167;48.162;11.542;2023-10-08T11:32:11;443.75;;;395.20;;
8254;SDS011;4167;48.162;11.542;2023-10-08T11:34:40;455.58;;;405.52;;
8254;SDS011;4167;48.162;11.542;2023-10-08T11:37:07;450.48;;;400.90;;
8254;SDS011;4167;48.162;11.542;2023-10-08T11:39:45;457.00;;;407.80;;
8254;SDS011;4167;48.162;11.542;2023-10-08T11:42:11;470.58;;;422.17;;
8254;SDS011;4167;48.162;11.542;2023-10-08T11:45:05;462.13;;;410.05;;
8254;SDS011;4167;48.162;11.542;2023-10-08T11:47:43;449.92;;;402.20;;
8254;SDS011;4167;48.162;11.542;2023-10-08T11:50:10;452.15;;;402.52;;
8254;SDS011;4167;48.162;11.542;2023-10-08T11:52:42;457.33;;;407.85;;
8254;SDS011;4167;48.162;11.542;2023-10-08T11:55:08;459.45;;;410.35;;
8254;SDS011;4167;48.162;11.542;2023-10-08T11:57:35;456.80;;;401.25;;
8254;SDS011;4167;48.162;11.542;2023-10-08T12:00:12;446.85;;;398.38;;
8254;SDS011;4167;48.162;11.542;2023-10-08T12:02:44;468.17;;;418.33;;
8254;SDS011;4167;48.162;11.542;2023-10-08T12:05:11;480.30;;;407.58;;
8254;SDS011;4167;48.162;11.542;2023-10-08T12:07:44;481.10;;;429.45;;
8254;SDS011;4167;48.162;11.542;2023-10-08T12:10:11;450.42;;;400.13;;
8254;SDS011;4167;48.162;11.542;2023-10-08T12:12:38;486.48;;;403.83;;
8254;SDS011;4167;48.162;11.542;2023-10-08T12:15:06;494.90;;;404.73;;
8254;SDS011;4167;48.162;11.542;2023-10-08T12:17:35;459.27;;;410.02;;
8254;SDS011;4167;48.162;11.542;2023-10-08T12:20:05;474.75;;;422.58;;
8254;SDS011;4167;48.162;11.542;2023-10-08T12:22:47;467.75;;;417.73;;
8254;SDS011;4167;48.162;11.542;2023-10-08T12:27:41;454.17;;;405.40;;
8254;SDS011;4167;48.162;11.542;2023-10-08T12:32:37;459.30;;;410.30;;
8254;SDS011;4167;48.162;11.542;2023-10-08T12:35:07;456.00;;;405.90;;
8254;SDS011;4167;48.162;11.542;2023-10-08T12:37:38;460.10;;;410.60;;
8254;SDS011;4167;48.162;11.542;2023-10-08T12:40:05;448.63;;;399.50;;
8254;SDS011;4167;48.162;11.542;2023-10-08T12:42:47;468.17;;;405.70;;
8254;SDS011;4167;48.162;11.542;2023-10-08T12:45:15;464.73;;;414.88;;
8254;SDS011;4167;48.162;11.542;2023-10-08T12:47:47;455.27;;;403.40;;
8254;SDS011;4167;48.162;11.542;2023-10-08T12:50:15;450.10;;;401.55;;
8254;SDS011;4167;48.162;11.542;2023-10-08T12:52:46;449.63;;;401.23;;
8254;SDS011;4167;48.162;11.542;2023-10-08T12:55:20;475.02;;;410.50;;
8254;SDS011;4167;48.162;11.542;2023-10-08T12:57:49;449.10;;;400.90;;
8254;SDS011;4167;48.162;11.542;2023-10-08T13:00:20;457.42;;;406.08;;
8254;SDS011;4167;48.162;11.542;2023-10-08T13:02:50;451.92;;;401.60;;
8254;SDS011;4167;48.162;11.542;2023-10-08T13:05:19;457.42;;;407.92;;
8254;SDS011;4167;48.162;11.542;2023-10-08T13:07:52;440.55;;;392.15;;
8254;SDS011;4167;48.162;11.542;2023-10-08T13:10:20;465.65;;;415.58;;
8254;SDS011;4167;48.162;11.542;2023-10-08T13:12:47;461.90;;;401.60;;
8254;SDS011;4167;48.162;11.542;2023-10-08T13:15:13;451.00;;;401.98;;
8254;SDS011;4167;48.162;11.542;2023-10-08T13:17:40;451.83;;;404.15;;
8254;SDS011;4167;48.162;11.542;2023-10-08T13:20:09;451.02;;;401.60;;
8254;SDS011;4167;48.162;11.542;2023-10-08T13:22:37;457.88;;;408.33;;
8254;SDS011;4167;48.162;11.542;2023-10-08T13:25:04;452.05;;;402.98;;
8254;SDS011;4167;48.162;11.542;2023-10-08T13:27:31;456.95;;;409.48;;
8254;SDS011;4167;48.162;11.542;2023-10-08T13:29:58;451.20;;;402.67;;
8254;SDS011;4167;48.162;11.542;2023-10-08T13:32:29;455.35;;;405.33;;
8254;SDS011;4167;48.162;11.542;2023-10-08T13:34:55;464.95;;;415.40;;
8254;SDS011;4167;48.162;11.542;2023-10-08T13:37:24;455.10;;;405.88;;
8254;SDS011;4167;48.162;11.542;2023-10-08T13:39:51;444.58;;;393.40;;
8254;SDS011;4167;48.162;11.542;2023-10-08T13:42:18;456.17;;;407.05;;
8254;SDS011;4167;48.162;11.542;2023-10-08T13:44:45;459.95;;;412.08;;
8254;SDS011;4167;48.162;11.542;2023-10-08T13:47:13;448.00;;;398.55;;
8254;SDS011;4167;48.162;11.542;2023-10-08T13:49:41;448.65;;;398.85;;
8254;SDS011;4167;48.162;11.542;2023-10-08T13:52:08;443.63;;;395.30;;
8254;SDS011;4167;48.162;11.542;2023-10-08T13:54:37;453.65;;;403.60;;
8254;SDS011;4167;48.162;11.542;2023-10-08T13:57:06;444.17;;;396.02;;
8254;SDS011;4167;48.162;11.542;2023-10-08T13:59:34;453.42;;;404.67;;
8254;SDS011;4167;48.162;11.542;2023-10-08T14:02:03;466.88;;;416.13;;
8254;SDS011;4167;48.162;11.542;2023-10-08T14:04:39;459.15;;;411.63;;
8254;SDS011;4167;48.162;11.542;2023-10-08T14:07:08;461.83;;;411.38;;
8254;SDS011;4167;48.162;11.542;2023-10-08T14:09:38;457.90;;;407.15;;
8254;SDS011;4167;48.162;11.542;2023-10-08T14:12:07;463.15;;;412.95;;
8254;SDS011;4167;48.162;11.542;2023-10-08T14:14:35;455.75;;;406.80;;
8254;SDS011;4167;48.162;11.542;2023-10-08T14:17:06;464.00;;;413.88;;
8254;SDS011;4167;48.162;11.542;2023-10-08T14:19:35;451.60;;;400.65;;
8254;SDS011;4167;48.162;11.542;2023-10-08T14:22:04;459.88;;;409.65;;
8254;SDS011;4167;48.162;11.542;2023-10-08T14:24:33;450.60;;;402.02;;
8254;SDS011;4167;48.162;11.542;2023-10-08T14:27:04;459.52;;;400.88;;
8254;SDS011;4167;48.162;11.542;2023-10-08T14:29:35;456.92;;;407.20;;
8254;SDS011;4167;48.162;11.542;2023-10-08T14:32:05;468.92;;;418.67;;
8254;SDS011;4167;48.162;11.542;2023-10-08T14:34:33;446.35;;;397.95;;
8254;SDS011;4167;48.162;11.542;2023-10-08T14:37:14;456.17;;;404.40;;
8254;SDS011;4167;48.162;11.542;2023-10-08T14:39:59;466.67;;;417.08;;
8254;SDS011;4167;48.162;11.542;2023-10-08T14:42:59;457.25;;;408.15;;
8254;SDS011;4167;48.162;11.542;2023-10-08T14:45:29;452.52;;;403.70;;
8254;SDS011;4167;48.162;11.542;2023-10-08T14:47:59;471.35;;;421.42;;
8254;SDS011;4167;48.162;11.542;2023-10-08T14:50:28;457.08;;;408.55;;